createdAt,value
2022-08-07T00:00:53.952Z,45.83
2022-08-07T00:03:25.617Z,45.51
2022-08-07T00:05:54.547Z,45.94
2022-08-07T00:08:24.551Z,45.89
2022-08-07T00:10:58.107Z,46.09
2022-08-07T00:13:27.142Z,45.95
2022-08-07T00:15:56.477Z,46.24
2022-08-07T00:18:26.958Z,46.06
2022-08-07T00:21:01.964Z,46.37
2022-08-07T00:23:34.403Z,46.24
2022-08-07T00:26:18.898Z,46.40
2022-08-07T00:28:55.382Z,46.47
2022-08-07T00:31:37.906Z,46.58
2022-08-07T00:34:09.758Z,46.62
2022-08-07T00:36:42.957Z,46.88
2022-08-07T00:39:16.749Z,46.72
2022-08-07T00:41:53.801Z,46.43
2022-08-07T00:44:30.581Z,46.92
2022-08-07T00:47:01.606Z,47.16
2022-08-07T00:50:21.486Z,47.41
2022-08-07T00:52:20.037Z,47.40
2022-08-07T00:54:53.401Z,47.33
2022-08-07T00:57:25.781Z,47.47
2022-08-07T00:59:54.958Z,47.35
2022-08-07T01:02:29.312Z,47.96
2022-08-07T01:04:58.852Z,48.16
2022-08-07T01:07:29.277Z,47.97
2022-08-07T01:10:05.289Z,48.28
2022-08-07T01:12:39.728Z,48.50
2022-08-07T01:15:21.980Z,48.71
2022-08-07T01:17:50.413Z,48.55
2022-08-07T01:20:30.868Z,48.55
2022-08-07T01:23:12.768Z,48.71
2022-08-07T01:25:55.845Z,48.76
2022-08-07T01:28:25.345Z,48.89
2022-08-07T01:30:55.229Z,48.93
2022-08-07T01:33:25.346Z,48.83
2022-08-07T01:36:16.827Z,48.82
2022-08-07T01:38:46.956Z,49.34
2022-08-07T01:41:25.948Z,49.32
2022-08-07T01:43:54.877Z,49.23
2022-08-07T01:46:22.964Z,49.08
2022-08-07T01:48:51.760Z,49.35
2022-08-07T01:51:58.570Z,49.47
2022-08-07T01:54:21.865Z,49.70
2022-08-07T01:57:08.366Z,49.70
2022-08-07T01:59:45.238Z,49.66
2022-08-07T02:02:33.001Z,49.74
2022-08-07T02:05:16.187Z,49.73
2022-08-07T02:08:02.816Z,49.74
2022-08-07T02:10:35.942Z,49.95
2022-08-07T02:13:12.426Z,50.21
2022-08-07T02:15:43.030Z,50.46
2022-08-07T02:18:13.024Z,50.51
2022-08-07T02:20:43.270Z,50.51
2022-08-07T02:23:20.094Z,50.74
2022-08-07T02:26:31.302Z,49.22
2022-08-07T02:28:43.648Z,50.47
2022-08-07T02:31:28.798Z,50.78
2022-08-07T02:34:03.073Z,50.54
2022-08-07T02:36:34.298Z,50.69
2022-08-07T02:39:16.816Z,50.89
2022-08-07T02:41:55.149Z,50.88
2022-08-07T02:44:34.306Z,51.05
2022-08-07T02:47:05.134Z,51.04
2022-08-07T02:49:57.529Z,51.29
2022-08-07T02:52:30.915Z,51.10
2022-08-07T02:55:04.311Z,51.21
2022-08-07T02:57:37.905Z,51.49
2022-08-07T03:00:11.085Z,51.39
2022-08-07T03:02:54.973Z,51.59
2022-08-07T03:05:25.546Z,51.42
2022-08-07T03:08:07.945Z,51.64
2022-08-07T03:10:40.666Z,51.57
2022-08-07T03:13:11.512Z,51.74
2022-08-07T03:15:55.994Z,52.03
2022-08-07T03:18:34.728Z,51.85
2022-08-07T03:21:08.655Z,51.65
2022-08-07T03:24:19.469Z,51.93
2022-08-07T03:26:33.758Z,52.20
2022-08-07T03:29:04.812Z,52.16
2022-08-07T03:31:43.092Z,52.46
2022-08-07T03:34:18.809Z,52.04
2022-08-07T03:36:53.938Z,52.31
2022-08-07T03:39:59.266Z,52.40
2022-08-07T03:42:15.501Z,52.62
2022-08-07T03:44:45.622Z,52.56
2022-08-07T03:47:22.756Z,52.63
2022-08-07T03:49:52.397Z,52.76
2022-08-07T03:52:26.667Z,52.65
2022-08-07T03:54:57.360Z,52.81
2022-08-07T03:59:09.711Z,52.84
2022-08-07T04:00:30.169Z,52.56
2022-08-07T04:02:59.798Z,52.97
2022-08-07T04:05:40.391Z,52.95
2022-08-07T04:08:12.162Z,52.73
2022-08-07T04:10:42.467Z,53.17
2022-08-07T04:13:15.413Z,53.19
2022-08-07T04:15:49.082Z,53.06
2022-08-07T04:18:56.818Z,53.08
2022-08-07T04:21:07.206Z,53.35
2022-08-07T04:23:43.522Z,53.34
2022-08-07T04:26:28.620Z,53.12
2022-08-07T04:28:58.609Z,53.29
2022-08-07T04:31:38.689Z,53.49
2022-08-07T04:34:24.310Z,53.27
2022-08-07T04:37:01.630Z,53.35
2022-08-07T04:39:35.863Z,53.48
2022-08-07T04:42:04.750Z,53.31
2022-08-07T04:44:34.874Z,53.28
2022-08-07T04:47:11.114Z,53.51
2022-08-07T04:50:04.834Z,52.93
2022-08-07T04:52:51.290Z,53.25
2022-08-07T04:58:12.161Z,53.92
2022-08-07T04:58:48.800Z,53.84
2022-08-07T05:01:19.223Z,53.95
2022-08-07T05:04:06.440Z,53.85
2022-08-07T05:06:43.441Z,54.07
2022-08-07T05:09:28.038Z,53.95
2022-08-07T05:12:26.746Z,54.59
2022-08-07T05:15:04.123Z,54.42
2022-08-07T05:17:52.698Z,54.81
2022-08-07T05:20:27.300Z,54.52
2022-08-07T05:23:01.194Z,55.14
2022-08-07T05:26:09.898Z,55.20
2022-08-07T05:28:22.668Z,55.21
2022-08-07T05:30:52.623Z,55.53
2022-08-07T05:33:22.677Z,55.08
2022-08-07T05:35:55.206Z,55.30
2022-08-07T05:38:58.112Z,56.03
2022-08-07T05:41:15.851Z,55.86
2022-08-07T05:44:08.368Z,56.18
2022-08-07T05:46:38.525Z,56.03
2022-08-07T05:49:12.589Z,56.19
2022-08-07T05:51:46.454Z,56.75
2022-08-07T05:54:30.021Z,56.56
2022-08-07T05:57:00.383Z,56.56
2022-08-07T05:59:38.772Z,57.18
2022-08-07T06:02:28.778Z,57.07
2022-08-07T06:05:03.601Z,57.10
2022-08-07T06:08:13.235Z,56.87
2022-08-07T06:10:23.067Z,56.76
2022-08-07T06:12:51.514Z,56.36
2022-08-07T06:15:20.457Z,56.60
2022-08-07T06:17:53.658Z,56.68
2022-08-07T06:20:25.496Z,56.64
2022-08-07T06:23:46.850Z,56.32
2022-08-07T06:25:54.834Z,56.25
2022-08-07T06:28:28.046Z,56.09
2022-08-07T06:30:58.121Z,55.93
2022-08-07T06:33:29.745Z,55.57
2022-08-07T06:36:11.961Z,55.79
2022-08-07T06:38:58.652Z,55.70
2022-08-07T06:42:01.600Z,55.78
2022-08-07T06:44:33.926Z,55.37
2022-08-07T06:47:10.346Z,55.49
2022-08-07T06:49:51.549Z,55.07
2022-08-07T06:52:31.574Z,55.14
2022-08-07T06:55:33.101Z,55.16
2022-08-07T06:57:59.911Z,54.88
2022-08-07T07:00:30.493Z,54.09
2022-08-07T07:03:00.721Z,53.86
2022-08-07T07:06:05.213Z,54.49
2022-08-07T07:08:26.456Z,53.38
2022-08-07T07:10:57.779Z,53.41
2022-08-07T07:13:55.606Z,53.06
2022-08-07T07:16:30.561Z,52.51
2022-08-07T07:19:33.879Z,52.05
2022-08-07T07:22:04.825Z,51.46
2022-08-07T07:24:43.038Z,51.43
2022-08-07T07:27:35.554Z,51.11
2022-08-07T07:30:32.401Z,51.07
2022-08-07T07:33:07.950Z,51.18
2022-08-07T07:35:44.105Z,50.52
2022-08-07T07:38:25.673Z,50.82
2022-08-07T07:41:00.028Z,50.65
2022-08-07T07:43:48.007Z,50.39
2022-08-07T07:46:40.289Z,50.51
2022-08-07T07:50:36.105Z,50.00
2022-08-07T07:52:08.164Z,49.78
2022-08-07T07:54:39.911Z,49.59
2022-08-07T07:57:14.280Z,49.10
2022-08-07T07:59:52.151Z,48.76
2022-08-07T08:02:35.551Z,48.33
2022-08-07T08:05:14.219Z,47.89
2022-08-07T08:07:59.790Z,48.00
2022-08-07T08:10:37.744Z,47.90
2022-08-07T08:13:10.564Z,47.51
2022-08-07T08:15:57.603Z,46.98
2022-08-07T08:18:30.143Z,46.67
2022-08-07T08:21:01.580Z,47.29
2022-08-07T08:23:50.425Z,45.99
2022-08-07T08:26:37.944Z,45.66
2022-08-07T08:29:08.279Z,45.82
2022-08-07T08:32:16.843Z,45.69
2022-08-07T08:34:31.351Z,46.06
2022-08-07T08:37:01.231Z,45.77
2022-08-07T08:39:39.667Z,45.80
2022-08-07T08:42:27.277Z,44.36
2022-08-07T08:45:04.570Z,45.73
2022-08-07T08:47:52.230Z,45.16
2022-08-07T08:50:35.250Z,45.24
2022-08-07T08:53:20.686Z,43.85
2022-08-07T08:55:58.670Z,43.41
2022-08-07T08:58:37.490Z,44.24
2022-08-07T09:01:14.700Z,43.30
2022-08-07T09:03:55.283Z,42.07
2022-08-07T09:06:37.388Z,43.04
2022-08-07T09:09:29.865Z,42.62
2022-08-07T09:12:29.968Z,42.16
2022-08-07T09:16:25.381Z,42.47
2022-08-07T09:18:23.607Z,41.65
2022-08-07T09:21:05.029Z,40.48
2022-08-07T09:24:30.792Z,41.19
2022-08-07T09:26:54.795Z,41.09
2022-08-07T09:30:05.534Z,41.33
2022-08-07T09:32:33.091Z,39.86
2022-08-07T09:36:01.270Z,39.76
2022-08-07T09:38:11.242Z,40.19
2022-08-07T09:40:55.645Z,39.63
2022-08-07T09:44:03.565Z,39.34
2022-08-07T09:47:52.479Z,38.72
2022-08-07T09:50:03.988Z,39.80
2022-08-07T09:52:38.135Z,40.10
2022-08-07T09:55:29.328Z,40.46
2022-08-07T09:58:38.502Z,39.72
2022-08-07T10:01:52.185Z,38.65
2022-08-07T10:05:12.408Z,40.06
2022-08-07T10:07:52.531Z,38.91
2022-08-07T10:11:00.177Z,39.22
2022-08-07T10:14:00.824Z,38.62
2022-08-07T10:16:39.476Z,38.57
2022-08-07T10:19:30.238Z,37.36
2022-08-07T10:22:24.946Z,37.47
2022-08-07T10:25:15.124Z,38.16
2022-08-07T10:28:23.646Z,37.01
2022-08-07T10:31:05.876Z,38.00
2022-08-07T10:34:15.798Z,37.27
2022-08-07T10:37:04.078Z,37.35
2022-08-07T10:40:02.704Z,36.62
2022-08-07T10:42:40.103Z,37.40
2022-08-07T10:45:45.083Z,36.87
2022-08-07T10:48:17.663Z,36.10
2022-08-07T10:50:50.689Z,35.98
2022-08-07T10:53:44.077Z,36.16
2022-08-07T10:56:31.879Z,36.85
2022-08-07T10:59:13.565Z,36.91
2022-08-07T11:02:05.033Z,36.92
2022-08-07T11:04:57.889Z,36.52
2022-08-07T11:07:59.508Z,37.04
2022-08-07T11:10:28.359Z,34.68
2022-08-07T11:13:03.648Z,34.94
2022-08-07T11:15:37.385Z,33.89
2022-08-07T11:18:14.927Z,34.81
2022-08-07T11:20:52.967Z,35.26
2022-08-07T11:23:36.230Z,34.74
2022-08-07T11:26:13.377Z,33.36
2022-08-07T11:28:55.741Z,33.86
2022-08-07T11:31:33.283Z,32.84
2022-08-07T11:34:16.408Z,33.96
2022-08-07T11:36:56.281Z,33.41
2022-08-07T11:40:00.124Z,34.17
2022-08-07T11:42:40.388Z,33.88
2022-08-07T11:45:20.693Z,32.97
2022-08-07T11:48:06.102Z,34.21
2022-08-07T11:50:57.213Z,32.68
2022-08-07T11:53:43.000Z,33.18
2022-08-07T11:56:37.879Z,32.75
2022-08-07T12:00:12.326Z,33.77
2022-08-07T12:02:30.716Z,32.63
2022-08-07T12:05:28.934Z,31.97
2022-08-07T12:08:25.423Z,32.23
2022-08-07T12:11:20.484Z,32.17
2022-08-07T12:13:53.863Z,32.21
2022-08-07T12:16:28.955Z,33.41
2022-08-07T12:19:07.678Z,31.75
2022-08-07T12:22:37.474Z,32.97
2022-08-07T12:24:37.680Z,30.31
2022-08-07T12:27:13.293Z,31.74
2022-08-07T12:29:55.041Z,30.77
2022-08-07T12:32:32.272Z,30.53
2022-08-07T12:35:05.701Z,30.50
2022-08-07T12:38:09.355Z,31.33
2022-08-07T12:40:49.992Z,31.46
2022-08-07T12:44:03.786Z,32.45
2022-08-07T12:46:32.309Z,31.58
2022-08-07T12:49:39.461Z,31.32
2022-08-07T12:52:14.393Z,31.25
2022-08-07T12:54:55.539Z,31.58
2022-08-07T12:57:39.336Z,30.68
2022-08-07T13:00:32.618Z,30.31
2022-08-07T13:03:27.458Z,29.05
2022-08-07T13:06:27.325Z,29.55
2022-08-07T13:09:12.574Z,29.02
2022-08-07T13:12:02.443Z,30.34
2022-08-07T13:14:50.814Z,30.86
2022-08-07T13:17:39.831Z,31.05
2022-08-07T13:20:16.586Z,31.40
2022-08-07T13:22:52.785Z,30.66
2022-08-07T13:25:30.797Z,31.01
2022-08-07T13:28:18.277Z,29.94
2022-08-07T13:31:01.504Z,29.79
2022-08-07T13:34:33.767Z,29.65
2022-08-07T13:36:32.670Z,30.59
2022-08-07T13:39:13.091Z,30.42
2022-08-07T13:41:59.085Z,29.63
2022-08-07T13:44:34.226Z,29.68
2022-08-07T13:47:10.134Z,29.68
2022-08-07T13:50:36.632Z,30.05
2022-08-07T13:52:41.442Z,30.19
2022-08-07T13:55:19.486Z,29.97
2022-08-07T13:58:27.564Z,30.30
2022-08-07T14:00:58.141Z,30.72
2022-08-07T14:04:05.318Z,28.93
2022-08-07T14:06:22.033Z,29.53
2022-08-07T14:08:54.917Z,29.84
2022-08-07T14:11:27.669Z,29.27
2022-08-07T14:14:17.959Z,29.68
2022-08-07T14:16:50.057Z,29.64
2022-08-07T14:20:40.778Z,30.02
2022-08-07T14:22:34.346Z,30.08
2022-08-07T14:25:10.169Z,30.33
2022-08-07T14:28:12.128Z,30.22
2022-08-07T14:30:32.998Z,30.08
2022-08-07T14:33:04.426Z,30.05
2022-08-07T14:35:44.882Z,29.87
2022-08-07T14:38:26.852Z,29.69
2022-08-07T14:41:12.190Z,29.63
2022-08-07T14:43:58.028Z,30.26
2022-08-07T14:46:34.787Z,29.95
2022-08-07T14:49:17.318Z,29.75
2022-08-07T14:52:03.180Z,30.16
2022-08-07T14:54:42.015Z,30.56
2022-08-07T14:57:18.811Z,30.20
2022-08-07T15:00:06.867Z,30.81
2022-08-07T15:02:37.420Z,30.71
2022-08-07T15:05:19.765Z,31.00
2022-08-07T15:10:59.005Z,31.27
2022-08-07T15:13:35.886Z,31.12
2022-08-07T15:16:14.614Z,31.59
2022-08-07T15:18:47.774Z,31.00
2022-08-07T15:21:58.759Z,31.47
2022-08-07T15:25:14.899Z,30.82
2022-08-07T15:27:09.959Z,30.97
2022-08-07T15:30:04.384Z,30.80
2022-08-07T15:32:39.352Z,31.40
2022-08-07T15:35:16.761Z,30.81
2022-08-07T15:41:22.924Z,31.51
2022-08-07T15:43:55.797Z,31.24
2022-08-07T15:46:48.583Z,31.16
2022-08-07T15:50:04.186Z,31.77
2022-08-07T16:11:40.167Z,31.43
2022-08-07T16:14:17.235Z,31.31
2022-08-07T16:17:16.318Z,31.29
2022-08-07T16:20:33.755Z,31.67
2022-08-07T16:23:54.136Z,31.72
2022-08-07T16:26:40.030Z,32.10
2022-08-07T16:30:10.316Z,31.56
2022-08-07T16:32:36.221Z,31.00
2022-08-07T16:35:51.821Z,31.16
2022-08-07T16:38:38.965Z,31.29
2022-08-07T16:41:22.353Z,31.36
2022-08-07T16:44:40.277Z,31.17
2022-08-07T16:47:51.615Z,31.51
2022-08-07T16:50:38.915Z,31.64
2022-08-07T16:54:01.109Z,31.97
2022-08-07T16:56:39.332Z,31.70
2022-08-07T16:59:17.958Z,32.43
2022-08-07T17:02:03.200Z,32.73
2022-08-07T17:04:50.975Z,33.16
2022-08-07T17:07:55.937Z,32.94
2022-08-07T17:10:36.228Z,33.25
2022-08-07T17:13:41.274Z,32.96
2022-08-07T17:16:27.354Z,32.67
2022-08-07T17:19:05.509Z,33.46
2022-08-07T17:21:51.675Z,33.53
2022-08-07T17:24:49.434Z,34.10
2022-08-07T17:27:32.578Z,33.94
2022-08-07T17:30:14.410Z,34.28
2022-08-07T17:34:10.286Z,34.60
2022-08-07T17:36:13.748Z,34.78
2022-08-07T17:38:52.328Z,35.40
2022-08-07T17:42:03.955Z,35.41
2022-08-07T17:44:44.020Z,35.67
2022-08-07T17:47:38.464Z,35.94
2022-08-07T17:50:16.520Z,35.77
2022-08-07T17:52:53.420Z,36.23
2022-08-07T17:56:00.248Z,36.65
2022-08-07T17:58:31.346Z,36.15
2022-08-07T18:01:04.119Z,36.58
2022-08-07T18:04:06.995Z,37.30
2022-08-07T18:06:43.279Z,36.79
2022-08-07T18:10:06.595Z,37.06
2022-08-07T18:12:20.076Z,37.20
2022-08-07T18:15:08.504Z,37.75
2022-08-07T18:18:46.459Z,37.74
2022-08-07T18:21:02.365Z,36.92
2022-08-07T18:23:57.515Z,37.58
2022-08-07T18:26:49.262Z,38.04
2022-08-07T18:30:04.281Z,38.31
2022-08-07T18:32:25.857Z,38.03
2022-08-07T18:35:10.976Z,38.04
2022-08-07T18:38:59.166Z,38.38
2022-08-07T18:41:08.066Z,38.48
2022-08-07T18:43:57.253Z,38.54
2022-08-07T18:46:33.546Z,38.47
2022-08-07T18:50:30.354Z,38.62
2022-08-07T18:52:33.710Z,39.11
2022-08-07T18:55:43.025Z,38.82
2022-08-07T18:58:15.800Z,39.08
2022-08-07T19:00:59.407Z,39.03
2022-08-07T19:03:38.793Z,39.60
2022-08-07T19:06:16.405Z,39.37
2022-08-07T19:09:09.022Z,39.44
2022-08-07T19:12:04.793Z,39.83
2022-08-07T19:15:00.530Z,39.36
2022-08-07T19:18:00.961Z,39.48
2022-08-07T19:21:14.992Z,39.56
2022-08-07T19:23:58.990Z,40.08
2022-08-07T19:26:28.995Z,39.88
2022-08-07T19:30:58.885Z,39.77
2022-08-07T19:32:11.514Z,39.84
2022-08-07T19:34:48.345Z,39.87
2022-08-07T19:37:22.334Z,39.62
2022-08-07T19:40:01.824Z,40.00
2022-08-07T19:42:40.232Z,40.08
2022-08-07T19:45:31.083Z,39.93
2022-08-07T19:48:03.596Z,39.79
2022-08-07T19:50:43.779Z,39.98
2022-08-07T19:54:29.737Z,39.92
2022-08-07T19:56:12.184Z,40.06
2022-08-07T19:58:52.825Z,40.19
2022-08-07T20:01:22.818Z,40.31
2022-08-07T20:04:11.844Z,40.37
2022-08-07T20:07:02.414Z,40.58
2022-08-07T20:10:36.245Z,40.66
2022-08-07T20:12:34.866Z,40.57
2022-08-07T20:15:09.775Z,40.50
2022-08-07T20:17:46.469Z,40.75
2022-08-07T20:20:31.831Z,40.54
2022-08-07T20:23:23.295Z,40.93
2022-08-07T20:25:55.474Z,40.96
2022-08-07T20:28:30.898Z,41.23
2022-08-07T20:31:00.154Z,40.95
2022-08-07T20:33:37.633Z,41.24
2022-08-07T20:36:09.880Z,41.21
2022-08-07T20:39:00.111Z,41.24
2022-08-07T20:41:34.049Z,41.26
2022-08-07T20:44:10.488Z,41.23
2022-08-07T20:46:44.861Z,41.44
2022-08-07T20:49:58.480Z,41.04
2022-08-07T20:52:16.468Z,41.50
2022-08-07T20:54:53.251Z,41.50
2022-08-07T20:57:26.098Z,41.64
2022-08-07T21:00:06.558Z,41.89
2022-08-07T21:02:57.619Z,41.74
2022-08-07T21:05:54.620Z,41.85
2022-08-07T21:08:37.211Z,41.91
2022-08-07T21:11:12.205Z,42.05
2022-08-07T21:14:16.868Z,42.10
2022-08-07T21:16:56.250Z,41.82
2022-08-07T21:19:50.786Z,42.09
2022-08-07T21:22:21.681Z,42.12
2022-08-07T21:25:12.101Z,42.12
2022-08-07T21:27:54.570Z,42.52
2022-08-07T21:30:39.688Z,42.70
2022-08-07T21:33:16.301Z,42.51
2022-08-07T21:36:05.423Z,42.91
2022-08-07T21:38:54.575Z,43.08
2022-08-07T21:41:38.120Z,43.08
2022-08-07T21:44:33.464Z,43.18
2022-08-07T21:47:12.296Z,43.28
2022-08-07T21:50:02.239Z,43.27
2022-08-07T21:52:44.148Z,43.49
2022-08-07T21:55:28.343Z,43.56
2022-08-07T21:58:08.157Z,43.82
2022-08-07T22:00:47.162Z,43.43
2022-08-07T22:03:31.690Z,44.15
2022-08-07T22:06:04.926Z,44.02
2022-08-07T22:08:43.451Z,43.93
2022-08-07T22:11:17.764Z,43.81
2022-08-07T22:13:52.442Z,44.30
2022-08-07T22:16:38.947Z,44.85
2022-08-07T22:19:20.189Z,44.37
2022-08-07T22:22:18.115Z,44.54
2022-08-07T22:25:02.656Z,44.90
2022-08-07T22:28:06.388Z,44.71
2022-08-07T22:30:33.601Z,44.74
2022-08-07T22:33:05.428Z,44.39
2022-08-07T22:35:41.906Z,44.98
2022-08-07T22:38:24.087Z,44.99
2022-08-07T22:41:02.923Z,45.16
2022-08-07T22:43:37.598Z,45.16
2022-08-07T22:47:02.993Z,45.69
2022-08-07T22:49:54.381Z,45.12
2022-08-07T22:52:47.920Z,45.23
2022-08-07T22:55:39.529Z,45.65
2022-08-07T22:58:47.084Z,45.38
2022-08-07T23:01:49.484Z,45.31
2022-08-07T23:04:53.321Z,46.27
2022-08-07T23:07:42.902Z,45.42
2022-08-07T23:10:36.450Z,45.67
2022-08-07T23:13:29.440Z,45.97
2022-08-07T23:16:46.276Z,46.27
2022-08-07T23:19:47.848Z,45.73
2022-08-07T23:22:39.154Z,46.15
2022-08-07T23:25:28.688Z,45.93
2022-08-07T23:28:21.878Z,46.43
2022-08-07T23:31:42.676Z,46.27
2022-08-07T23:34:37.895Z,46.01
2022-08-07T23:37:30.804Z,46.46
2022-08-07T23:40:12.811Z,46.53
2022-08-07T23:43:00.325Z,47.03
2022-08-07T23:46:03.285Z,47.11
2022-08-07T23:48:41.862Z,46.63
2022-08-07T23:53:00.785Z,46.88
2022-08-07T23:54:28.422Z,47.20
2022-08-07T23:57:13.662Z,47.29
